createdAt,value
2023-05-08T00:01:42.086Z,3.17
2023-05-08T00:04:09.940Z,3.17
2023-05-08T00:06:37.888Z,3.42
2023-05-08T00:09:05.947Z,3.55
2023-05-08T00:11:34.085Z,3.60
2023-05-08T00:14:01.907Z,3.60
2023-05-08T00:16:29.920Z,3.70
2023-05-08T00:18:57.720Z,4.00
2023-05-08T00:21:25.537Z,3.92
2023-05-08T00:23:53.312Z,8.10
2023-05-08T00:26:21.829Z,4.18
2023-05-08T00:28:49.562Z,3.90
2023-05-08T00:31:17.377Z,4.93
2023-05-08T00:33:45.264Z,9.02
2023-05-08T00:36:15.678Z,7.82
2023-05-08T00:38:43.788Z,5.87
2023-05-08T00:41:11.584Z,5.63
2023-05-08T00:43:40.074Z,6.45
2023-05-08T00:46:09.988Z,5.32
2023-05-08T00:48:39.778Z,6.15
2023-05-08T00:51:09.539Z,5.95
2023-05-08T00:53:44.453Z,7.00
2023-05-08T00:56:15.365Z,6.05
2023-05-08T00:58:44.648Z,5.47
2023-05-08T01:01:12.955Z,5.05
2023-05-08T01:03:41.499Z,12.15
2023-05-08T01:06:09.430Z,8.63
2023-05-08T01:08:37.398Z,6.25
2023-05-08T01:11:21.734Z,6.82
2023-05-08T01:14:25.078Z,5.28
2023-05-08T01:17:11.751Z,5.30
2023-05-08T01:20:21.476Z,4.50
2023-05-08T01:23:21.115Z,4.75
2023-05-08T01:26:42.138Z,4.65
2023-05-08T01:29:33.993Z,5.07
2023-05-08T01:32:15.749Z,5.95
2023-05-08T01:37:23.156Z,7.55
2023-05-08T01:40:13.187Z,6.43
2023-05-08T01:42:58.004Z,6.55
2023-05-08T01:45:39.176Z,5.45
2023-05-08T01:48:16.952Z,5.30
2023-05-08T01:50:52.707Z,4.70
2023-05-08T01:53:28.617Z,5.68
2023-05-08T01:56:08.063Z,5.50
2023-05-08T01:58:37.458Z,4.80
2023-05-08T02:01:06.038Z,5.10
2023-05-08T02:03:35.119Z,5.50
2023-05-08T02:06:04.483Z,4.72
2023-05-08T02:08:34.574Z,4.53
2023-05-08T02:11:06.024Z,4.78
2023-05-08T02:13:36.331Z,4.65
2023-05-08T02:16:06.964Z,5.85
2023-05-08T02:18:35.820Z,5.25
2023-05-08T02:21:06.959Z,5.95
2023-05-08T02:23:35.853Z,5.20
2023-05-08T02:26:05.564Z,5.18
2023-05-08T02:28:34.626Z,5.07
2023-05-08T02:31:03.137Z,4.93
2023-05-08T02:33:31.953Z,4.95
2023-05-08T02:36:00.658Z,4.85
2023-05-08T02:38:31.780Z,5.60
2023-05-08T02:41:03.922Z,5.77
2023-05-08T02:43:32.169Z,5.25
2023-05-08T02:46:46.743Z,6.30
2023-05-08T02:49:54.765Z,5.47
2023-05-08T02:52:30.799Z,5.32
2023-05-08T02:55:11.676Z,5.72
2023-05-08T02:57:42.059Z,6.03
2023-05-08T03:00:31.319Z,5.80
2023-05-08T03:03:08.304Z,11.00
2023-05-08T03:05:39.472Z,5.82
2023-05-08T03:08:16.052Z,5.50
2023-05-08T03:10:49.418Z,7.93
2023-05-08T03:13:20.929Z,6.53
2023-05-08T03:15:56.210Z,6.82
2023-05-08T03:18:52.211Z,6.82
2023-05-08T03:21:22.787Z,7.97
2023-05-08T03:23:53.874Z,6.20
2023-05-08T03:26:22.249Z,6.50
2023-05-08T03:28:52.461Z,6.95
2023-05-08T03:31:24.297Z,5.93
2023-05-08T03:33:55.443Z,7.03
2023-05-08T03:36:27.087Z,6.97
2023-05-08T03:41:26.924Z,7.22
2023-05-08T03:43:56.032Z,6.43
2023-05-08T03:46:25.855Z,6.47
2023-05-08T03:48:54.347Z,6.93
2023-05-08T03:51:22.547Z,6.32
2023-05-08T03:53:50.891Z,7.10
2023-05-08T03:56:19.490Z,8.05
2023-05-08T03:59:29.360Z,8.77
2023-05-08T04:02:30.707Z,7.07
2023-05-08T04:05:42.916Z,7.32
2023-05-08T04:08:29.739Z,10.77
2023-05-08T04:11:18.065Z,7.18
2023-05-08T04:13:51.800Z,7.22
2023-05-08T04:16:26.895Z,7.00
2023-05-08T04:19:03.887Z,7.60
2023-05-08T04:21:35.435Z,7.95
2023-05-08T04:26:38.828Z,6.72
2023-05-08T04:29:07.451Z,8.32
2023-05-08T04:31:38.762Z,7.53
2023-05-08T04:34:14.426Z,7.22
2023-05-08T04:36:44.726Z,7.88
2023-05-08T04:39:12.698Z,8.57
2023-05-08T04:41:42.603Z,8.45
2023-05-08T04:44:11.500Z,7.88
2023-05-08T04:46:39.330Z,8.02
2023-05-08T04:49:07.404Z,8.50
2023-05-08T04:51:35.732Z,7.85
2023-05-08T04:54:05.399Z,8.07
2023-05-08T04:56:33.180Z,8.50
2023-05-08T04:59:07.296Z,8.30
2023-05-08T05:01:35.313Z,8.82
2023-05-08T05:04:03.787Z,10.05
2023-05-08T05:06:33.190Z,9.20
2023-05-08T05:09:01.642Z,10.13
2023-05-08T05:11:31.579Z,11.43
2023-05-08T05:13:59.879Z,10.73
2023-05-08T05:16:27.967Z,10.00
2023-05-08T05:18:55.955Z,11.60
2023-05-08T05:21:23.700Z,11.15
2023-05-08T05:23:52.531Z,11.23
2023-05-08T05:26:23.315Z,11.63
2023-05-08T05:28:52.872Z,10.88
2023-05-08T05:31:20.930Z,11.10
2023-05-08T05:33:50.671Z,11.73
2023-05-08T05:36:19.284Z,12.38
2023-05-08T05:38:48.645Z,12.35
2023-05-08T05:41:16.472Z,12.30
2023-05-08T05:43:48.596Z,12.47
2023-05-08T05:46:16.490Z,11.65
2023-05-08T05:48:44.376Z,11.93
2023-05-08T05:51:12.348Z,11.73
2023-05-08T05:53:43.499Z,12.88
2023-05-08T05:56:11.473Z,10.55
2023-05-08T05:58:40.966Z,11.13
2023-05-08T06:01:10.467Z,10.68
2023-05-08T06:03:45.906Z,10.35
2023-05-08T06:06:14.546Z,11.52
2023-05-08T06:08:42.285Z,10.30
2023-05-08T06:11:10.195Z,9.82
2023-05-08T06:13:42.473Z,10.07
2023-05-08T06:16:10.289Z,9.57
2023-05-08T06:18:38.083Z,9.43
2023-05-08T06:21:12.020Z,9.48
2023-05-08T06:23:39.791Z,9.60
2023-05-08T06:26:07.472Z,9.38
2023-05-08T06:28:38.760Z,9.60
2023-05-08T06:31:09.050Z,16.17
2023-05-08T06:33:36.859Z,9.05
2023-05-08T06:36:06.835Z,8.75
2023-05-08T06:38:34.676Z,8.05
2023-05-08T06:41:03.956Z,7.55
2023-05-08T06:43:31.787Z,8.98
2023-05-08T06:46:01.528Z,7.82
2023-05-08T06:48:36.311Z,7.03
2023-05-08T06:51:07.442Z,7.85
2023-05-08T06:53:37.061Z,7.40
2023-05-08T06:56:07.712Z,6.75
2023-05-08T06:58:37.158Z,7.30
2023-05-08T07:01:04.953Z,6.72
2023-05-08T07:03:32.812Z,6.55
2023-05-08T07:06:00.497Z,6.40
2023-05-08T07:08:32.175Z,6.00
2023-05-08T07:10:59.947Z,5.60
2023-05-08T07:13:28.629Z,5.38
2023-05-08T07:16:01.162Z,5.43
2023-05-08T07:18:28.924Z,5.68
2023-05-08T07:20:58.297Z,5.43
2023-05-08T07:23:27.509Z,5.32
2023-05-08T07:25:55.399Z,5.30
2023-05-08T07:28:23.280Z,5.45
2023-05-08T07:30:51.617Z,5.10
2023-05-08T07:33:21.459Z,5.40
2023-05-08T07:35:49.436Z,6.63
2023-05-08T07:38:17.338Z,5.05
2023-05-08T07:40:47.774Z,5.32
2023-05-08T07:43:15.537Z,5.40
2023-05-08T07:45:43.292Z,4.97
2023-05-08T07:48:11.871Z,5.35
2023-05-08T07:50:39.690Z,5.53
2023-05-08T07:53:14.082Z,5.18
2023-05-08T07:55:42.215Z,5.60
2023-05-08T07:58:10.053Z,5.22
2023-05-08T08:00:37.883Z,5.00
2023-05-08T08:03:06.196Z,4.60
2023-05-08T08:05:34.658Z,5.50
2023-05-08T08:08:02.686Z,5.55
2023-05-08T08:10:32.396Z,5.45
2023-05-08T08:13:08.547Z,5.78
2023-05-08T08:15:36.305Z,5.97
2023-05-08T08:18:06.824Z,8.02
2023-05-08T08:20:34.630Z,5.87
2023-05-08T08:23:10.821Z,5.75
2023-05-08T08:25:40.828Z,5.90
2023-05-08T08:28:08.962Z,5.53
2023-05-08T08:30:39.717Z,6.47
2023-05-08T08:33:10.776Z,5.95
2023-05-08T08:35:40.706Z,6.15
2023-05-08T08:38:11.513Z,5.72
2023-05-08T08:40:42.636Z,6.22
2023-05-08T08:43:13.420Z,6.93
2023-05-08T08:45:41.218Z,6.38
2023-05-08T08:48:12.422Z,5.82
2023-05-08T08:50:44.319Z,5.68
2023-05-08T08:53:17.606Z,5.72
2023-05-08T08:55:50.388Z,6.18
2023-05-08T08:58:28.105Z,5.57
2023-05-08T09:00:56.374Z,6.38
2023-05-08T09:03:24.287Z,5.78
2023-05-08T09:06:01.445Z,5.82
2023-05-08T09:08:37.535Z,6.28
2023-05-08T09:11:05.374Z,6.53
2023-05-08T09:13:33.369Z,5.70
2023-05-08T09:16:03.564Z,6.30
2023-05-08T09:18:36.144Z,6.18
2023-05-08T09:21:06.913Z,6.75
2023-05-08T09:23:54.240Z,7.78
2023-05-08T09:26:40.350Z,7.82
2023-05-08T09:29:13.586Z,19.60
2023-05-08T09:31:44.630Z,34.10
2023-05-08T09:34:28.489Z,24.92
2023-05-08T09:37:20.559Z,15.13
2023-05-08T09:39:50.087Z,7.60
2023-05-08T09:42:19.542Z,14.02
2023-05-08T09:44:53.449Z,8.23
2023-05-08T09:47:27.038Z,8.82
2023-05-08T09:50:04.827Z,62.28
2023-05-08T09:52:35.364Z,80.57
2023-05-08T09:55:10.836Z,76.35
2023-05-08T09:58:01.829Z,36.95
2023-05-08T10:00:30.026Z,15.30
2023-05-08T10:03:02.483Z,11.02
2023-05-08T10:05:37.235Z,8.18
2023-05-08T10:08:23.645Z,8.02
2023-05-08T10:10:54.693Z,7.60
2023-05-08T10:13:29.664Z,7.20
2023-05-08T10:16:04.579Z,7.60
2023-05-08T10:18:37.938Z,7.25
2023-05-08T10:21:10.825Z,7.72
2023-05-08T10:23:39.944Z,20.83
2023-05-08T10:26:16.005Z,77.78
2023-05-08T10:29:01.430Z,31.25
2023-05-08T10:31:36.409Z,12.63
2023-05-08T10:34:07.376Z,41.70
2023-05-08T10:36:37.377Z,20.23
2023-05-08T10:39:06.129Z,61.47
2023-05-08T10:41:37.094Z,42.97
2023-05-08T10:44:08.191Z,16.38
2023-05-08T10:46:53.094Z,10.43
2023-05-08T10:50:06.264Z,7.97
2023-05-08T10:52:54.932Z,7.45
2023-05-08T10:55:31.737Z,7.32
2023-05-08T10:58:09.914Z,10.55
2023-05-08T11:00:52.358Z,59.95
2023-05-08T11:03:31.322Z,20.05
2023-05-08T11:06:02.380Z,8.98
2023-05-08T11:08:31.748Z,9.25
2023-05-08T11:11:03.846Z,25.55
2023-05-08T11:13:56.778Z,27.17
2023-05-08T11:17:03.371Z,20.92
2023-05-08T11:19:34.015Z,9.63
2023-05-08T11:22:23.553Z,6.03
2023-05-08T11:25:12.876Z,8.05
2023-05-08T11:27:49.963Z,7.40
2023-05-08T11:30:42.906Z,6.07
2023-05-08T11:33:14.552Z,7.97
2023-05-08T11:35:55.981Z,7.97
2023-05-08T11:41:09.316Z,7.22
2023-05-08T11:44:09.130Z,8.50
2023-05-08T11:46:56.933Z,7.77
2023-05-08T11:49:29.493Z,7.70
2023-05-08T11:52:00.295Z,5.85
2023-05-08T11:54:31.533Z,6.50
2023-05-08T11:57:01.855Z,5.70
2023-05-08T11:59:35.378Z,5.35
2023-05-08T12:04:44.575Z,5.20
2023-05-08T12:07:14.268Z,4.93
2023-05-08T12:09:42.313Z,5.60
2023-05-08T12:12:10.101Z,4.63
2023-05-08T12:14:39.889Z,5.03
2023-05-08T12:17:09.646Z,4.55
2023-05-08T12:19:39.308Z,5.05
2023-05-08T12:22:10.575Z,5.10
2023-05-08T12:27:07.331Z,4.82
2023-05-08T12:29:37.637Z,4.15
2023-05-08T12:32:05.558Z,4.95
2023-05-08T12:34:36.004Z,4.57
2023-05-08T12:37:07.390Z,6.32
2023-05-08T12:39:40.341Z,4.30
2023-05-08T12:42:08.094Z,3.88
2023-05-08T12:44:35.865Z,4.70
2023-05-08T12:47:12.568Z,4.15
2023-05-08T12:49:40.355Z,4.30
2023-05-08T12:52:14.050Z,4.63
2023-05-08T12:54:48.536Z,3.90
2023-05-08T12:57:19.760Z,3.83
2023-05-08T12:59:47.589Z,4.30
2023-05-08T13:02:24.147Z,4.50
2023-05-08T13:04:59.995Z,4.65
2023-05-08T13:07:34.262Z,4.28
2023-05-08T13:10:05.854Z,4.05
2023-05-08T13:12:34.565Z,5.18
2023-05-08T13:15:05.115Z,3.72
2023-05-08T13:17:33.127Z,5.85
2023-05-08T13:20:00.870Z,3.67
2023-05-08T13:22:28.708Z,4.40
2023-05-08T13:24:56.364Z,4.20
2023-05-08T13:27:24.333Z,3.90
2023-05-08T13:29:55.554Z,4.00
2023-05-08T13:32:30.277Z,4.60
2023-05-08T13:35:00.276Z,4.43
2023-05-08T13:37:28.858Z,4.50
2023-05-08T13:39:58.661Z,4.00
2023-05-08T13:42:26.514Z,5.55
2023-05-08T13:44:54.269Z,4.80
2023-05-08T13:47:22.137Z,4.32
2023-05-08T13:49:50.349Z,3.95
2023-05-08T13:52:20.083Z,4.55
2023-05-08T13:54:47.864Z,4.65
2023-05-08T13:57:17.655Z,5.00
2023-05-08T13:59:45.415Z,7.28
2023-05-08T14:02:15.739Z,5.45
2023-05-08T14:04:43.737Z,4.63
2023-05-08T14:07:13.083Z,5.05
2023-05-08T14:09:40.944Z,5.40
2023-05-08T14:12:08.848Z,5.97
2023-05-08T14:14:36.794Z,5.05
2023-05-08T14:17:05.735Z,5.78
2023-05-08T14:19:40.092Z,5.40
2023-05-08T14:22:10.157Z,5.50
2023-05-08T14:24:38.029Z,5.60
2023-05-08T14:27:06.056Z,5.95
2023-05-08T14:29:36.591Z,6.07
2023-05-08T14:32:05.553Z,5.43
2023-05-08T14:34:33.538Z,6.03
2023-05-08T14:37:01.243Z,5.57
2023-05-08T14:39:30.917Z,6.25
2023-05-08T14:44:34.898Z,5.30
2023-05-08T14:47:06.767Z,6.00
2023-05-08T14:49:38.790Z,5.60
2023-05-08T14:52:09.208Z,5.30
2023-05-08T14:54:41.518Z,5.50
2023-05-08T14:57:09.421Z,5.57
2023-05-08T14:59:39.803Z,5.85
2023-05-08T15:02:13.500Z,5.85
2023-05-08T15:04:42.503Z,5.43
2023-05-08T15:07:11.589Z,5.30
2023-05-08T15:09:39.596Z,6.00
2023-05-08T15:12:08.934Z,5.88
2023-05-08T15:14:36.833Z,5.53
2023-05-08T15:17:05.167Z,5.80
2023-05-08T15:19:33.055Z,5.47
2023-05-08T15:22:01.122Z,6.18
2023-05-08T15:24:28.856Z,5.82
2023-05-08T15:26:56.662Z,5.95
2023-05-08T15:29:31.730Z,5.88
2023-05-08T15:31:59.736Z,6.03
2023-05-08T15:34:32.438Z,5.45
2023-05-08T15:37:00.885Z,5.40
2023-05-08T15:39:34.397Z,5.82
2023-05-08T15:42:02.219Z,8.77
2023-05-08T15:44:41.684Z,5.78
2023-05-08T15:47:19.472Z,6.05
2023-05-08T15:49:48.945Z,6.25
2023-05-08T15:52:18.782Z,6.00
2023-05-08T15:54:47.568Z,5.82
2023-05-08T15:57:16.012Z,6.30
2023-05-08T15:59:43.874Z,5.88
2023-05-08T16:02:11.649Z,6.00
2023-05-08T16:04:39.899Z,6.72
2023-05-08T16:07:07.922Z,6.88
2023-05-08T16:09:36.083Z,6.32
2023-05-08T16:12:04.086Z,7.60
2023-05-08T16:14:32.069Z,6.38
2023-05-08T16:16:59.865Z,7.53
2023-05-08T16:19:27.820Z,7.72
2023-05-08T16:21:55.628Z,6.57
2023-05-08T16:24:23.744Z,5.95
2023-05-08T16:26:51.682Z,6.40
2023-05-08T16:29:22.392Z,6.60
2023-05-08T16:31:50.554Z,6.22
2023-05-08T16:34:41.851Z,7.32
2023-05-08T16:37:42.780Z,7.07
2023-05-08T16:40:13.051Z,6.75
2023-05-08T16:42:40.862Z,7.60
2023-05-08T16:45:09.294Z,6.97
2023-05-08T16:47:38.849Z,7.63
2023-05-08T16:50:08.724Z,6.85
2023-05-08T16:52:36.776Z,6.97
2023-05-08T16:55:04.915Z,7.85
2023-05-08T16:57:32.731Z,8.07
2023-05-08T17:00:02.152Z,9.23
2023-05-08T17:02:32.787Z,9.10
2023-05-08T17:05:00.619Z,8.57
2023-05-08T17:07:28.346Z,8.43
2023-05-08T17:09:57.657Z,8.13
2023-05-08T17:12:25.470Z,8.45
2023-05-08T17:15:13.050Z,11.35
2023-05-08T17:18:15.748Z,7.55
2023-05-08T17:20:43.897Z,8.05
2023-05-08T17:23:13.088Z,8.15
2023-05-08T17:25:43.755Z,7.80
2023-05-08T17:28:13.716Z,7.68
2023-05-08T17:30:41.546Z,8.52
2023-05-08T17:33:09.419Z,8.65
2023-05-08T17:35:37.252Z,9.23
2023-05-08T17:38:07.264Z,8.40
2023-05-08T17:40:36.797Z,10.02
2023-05-08T17:43:10.538Z,8.55
2023-05-08T17:45:38.937Z,8.82
2023-05-08T17:48:06.929Z,8.88
2023-05-08T17:50:35.357Z,10.23
2023-05-08T17:53:03.050Z,8.57
2023-05-08T17:55:31.717Z,8.52
2023-05-08T17:57:59.728Z,8.25
2023-05-08T18:00:27.460Z,8.20
2023-05-08T18:02:55.436Z,8.55
2023-05-08T18:05:23.368Z,8.25
2023-05-08T18:07:53.943Z,8.75
2023-05-08T18:10:21.989Z,8.48
2023-05-08T18:12:49.827Z,7.78
2023-05-08T18:15:17.612Z,9.05
2023-05-08T18:17:45.436Z,8.82
2023-05-08T18:20:13.445Z,8.27
2023-05-08T18:22:41.681Z,8.73
2023-05-08T18:25:09.705Z,8.52
2023-05-08T18:27:43.819Z,8.85
2023-05-08T18:30:19.856Z,8.57
2023-05-08T18:32:48.115Z,7.65
2023-05-08T18:35:17.793Z,8.27
2023-05-08T18:37:48.689Z,7.78
2023-05-08T18:40:17.063Z,7.85
2023-05-08T18:42:44.839Z,8.27
2023-05-08T18:45:14.410Z,8.20
2023-05-08T18:47:49.035Z,8.40
2023-05-08T18:50:18.151Z,8.05
2023-05-08T18:52:53.539Z,8.15
2023-05-08T18:55:27.424Z,8.00
2023-05-08T18:58:11.497Z,8.25
2023-05-08T19:00:39.959Z,9.02
2023-05-08T19:03:07.866Z,8.75
2023-05-08T19:05:36.311Z,8.25
2023-05-08T19:08:04.453Z,8.43
2023-05-08T19:10:32.375Z,12.75
2023-05-08T19:13:04.093Z,8.60
2023-05-08T19:15:38.903Z,8.82
2023-05-08T19:18:09.605Z,7.72
2023-05-08T19:20:41.115Z,8.82
2023-05-08T19:23:14.907Z,9.10
2023-05-08T19:25:45.741Z,8.68
2023-05-08T19:28:15.446Z,10.02
2023-05-08T19:30:45.057Z,9.13
2023-05-08T19:33:19.072Z,8.65
2023-05-08T19:35:48.768Z,8.52
2023-05-08T19:38:17.023Z,8.52
2023-05-08T19:40:56.403Z,8.23
2023-05-08T19:43:26.728Z,9.45
2023-05-08T19:45:56.049Z,8.45
2023-05-08T19:48:25.983Z,8.27
2023-05-08T19:50:55.068Z,7.53
2023-05-08T19:53:23.814Z,8.10
2023-05-08T19:55:51.932Z,10.45
2023-05-08T19:58:19.858Z,8.25
2023-05-08T20:03:19.259Z,7.50
2023-05-08T20:05:53.802Z,8.02
2023-05-08T20:08:23.918Z,8.52
2023-05-08T20:10:55.655Z,8.40
2023-05-08T20:13:25.359Z,8.68
2023-05-08T20:15:55.548Z,8.88
2023-05-08T20:18:23.622Z,8.43
2023-05-08T20:20:51.692Z,9.20
2023-05-08T20:23:19.807Z,11.57
2023-05-08T20:25:50.589Z,9.35
2023-05-08T20:28:22.325Z,8.68
2023-05-08T20:30:52.856Z,8.52
2023-05-08T20:33:27.051Z,13.18
2023-05-08T20:35:55.020Z,10.23
2023-05-08T20:38:24.778Z,8.35
2023-05-08T20:40:55.834Z,7.97
2023-05-08T20:43:26.757Z,7.93
2023-05-08T20:45:56.467Z,8.43
2023-05-08T20:48:24.571Z,7.45
2023-05-08T20:50:52.885Z,7.78
2023-05-08T20:53:26.119Z,10.60
2023-05-08T20:56:01.948Z,9.65
2023-05-08T20:58:30.524Z,9.95
2023-05-08T21:00:58.451Z,9.15
2023-05-08T21:03:26.394Z,11.27
2023-05-08T21:05:57.032Z,13.85
2023-05-08T21:08:26.597Z,9.80
2023-05-08T21:10:54.499Z,8.38
2023-05-08T21:13:22.357Z,7.97
2023-05-08T21:15:51.086Z,7.90
2023-05-08T21:18:19.100Z,8.45
2023-05-08T21:20:50.338Z,8.40
2023-05-08T21:23:19.485Z,7.60
2023-05-08T21:25:48.432Z,7.55
2023-05-08T21:28:19.067Z,7.95
2023-05-08T21:30:48.176Z,9.10
2023-05-08T21:33:16.065Z,8.60
2023-05-08T21:35:46.829Z,9.43
2023-05-08T21:38:17.590Z,8.57
2023-05-08T21:40:45.654Z,9.40
2023-05-08T21:43:14.427Z,9.60
2023-05-08T21:45:42.397Z,8.77
2023-05-08T21:48:10.370Z,9.68
2023-05-08T21:50:38.289Z,8.63
2023-05-08T21:53:06.651Z,9.25
2023-05-08T21:55:34.773Z,8.98
2023-05-08T21:58:02.787Z,9.35
2023-05-08T22:00:32.916Z,9.48
2023-05-08T22:03:01.106Z,9.55
2023-05-08T22:05:29.300Z,9.48
2023-05-08T22:07:57.395Z,9.60
2023-05-08T22:10:26.007Z,8.38
2023-05-08T22:12:54.009Z,8.27
2023-05-08T22:15:29.557Z,8.55
2023-05-08T22:17:59.607Z,9.07
2023-05-08T22:20:27.910Z,9.48
2023-05-08T22:22:55.998Z,8.93
2023-05-08T22:25:25.191Z,10.43
2023-05-08T22:27:53.372Z,10.77
2023-05-08T22:30:21.444Z,8.82
2023-05-08T22:32:56.088Z,8.77
2023-05-08T22:35:26.834Z,8.55
2023-05-08T22:37:57.380Z,9.13
2023-05-08T22:40:26.109Z,8.40
2023-05-08T22:42:58.914Z,8.02
2023-05-08T22:45:27.578Z,9.48
2023-05-08T22:47:56.029Z,8.35
2023-05-08T22:50:23.899Z,9.07
2023-05-08T22:52:52.064Z,9.85
2023-05-08T22:55:20.134Z,8.93
2023-05-08T22:57:48.025Z,9.02
2023-05-08T23:00:16.480Z,8.82
2023-05-08T23:02:44.365Z,9.82
2023-05-08T23:05:12.685Z,9.85
2023-05-08T23:07:41.693Z,10.18
2023-05-08T23:10:10.533Z,8.90
2023-05-08T23:12:38.454Z,9.35
2023-05-08T23:15:07.855Z,9.15
2023-05-08T23:17:36.072Z,9.55
2023-05-08T23:20:05.807Z,9.10
2023-05-08T23:22:34.030Z,9.63
2023-05-08T23:25:04.451Z,10.20
2023-05-08T23:27:32.519Z,9.55
2023-05-08T23:30:01.072Z,8.95
2023-05-08T23:32:29.178Z,9.98
2023-05-08T23:34:57.608Z,9.52
2023-05-08T23:37:25.386Z,9.35
2023-05-08T23:39:53.173Z,9.18
2023-05-08T23:42:20.880Z,11.02
2023-05-08T23:44:48.605Z,17.65
2023-05-08T23:47:18.756Z,11.43
2023-05-08T23:49:49.512Z,10.18
2023-05-08T23:52:17.608Z,9.95
2023-05-08T23:54:45.622Z,10.32
2023-05-08T23:57:13.493Z,11.25
2023-05-08T23:59:41.175Z,11.05
